Yakutsk Airport
UEEE : now visible

Airfield :











YOU CAN JOIN US ON...

 
LOGIN :

Register | Disclaimer

   EN    FR    IT 

 









Legend :    VFR   Marginal VFR   IFR   Intensive IFR   Very Intensive IFR
Visi :
Ceiling :
>= 8 km
>= 3000ft
5 to 8 km
1000 to 3000 ft
1500m to 5 km
500 to 1000 ft
800 to 1500m
200 to 500 ft
< 800m
< 200 ft
Symbols :   Thunderstorms  Fog  Heavy snow  Heavy precipitations  Wind > 20 kt







- Airport Elevation : 325 ft
- IATA code : YKS


UEEE - Yakutsk

CURRENT METAR :
  • 191400Z 31004MPS CAVOK 03/M09 Q1010 R23L/09//60 NOSIG RMK QFE749

EXPIRED METARs :
  • 191330Z 30003MPS CAVOK 04/M08 Q1010 R23L/09//60 NOSIG RMK QFE749
  • 191300Z 30003MPS CAVOK 04/M08 Q1010 R23L/09//60 NOSIG RMK QFE749
  • 191230Z 30003MPS CAVOK 05/M08 Q1009 R23L/09//60 NOSIG RMK QFE748
  • 191200Z 30004MPS CAVOK 06/M08 Q1009 R23L/09//60 NOSIG RMK QFE748
  • 191130Z 31004MPS CAVOK 07/M08 Q1009 R23L/09//60 NOSIG RMK QFE748

TAF TAF UEEE
Valid from the 19 at 12:00 until the 20 at 18:00 UTC


191100Z 1912/2018 30007G14MPS CAVOK
UEEE FIR / Asia



MET'MAP, your aeronautical weather chart ! - Copyright ORBIFLY December 2007 - Disclaimer

ORBIFLY MET'MAP TEAM :

Programming & Development : Alexandra Zaïnal
Concept & Development : Baudouin d'Aumeries
Co-Development & Prog : Marc-Olivier Méhu
Technical & hardware support : Manuel Goepfert

Contact : metmap@orbifly.com




SOURCES & CREDITS :

   NOAA       Earth
Advisory